createdAt,value
2022-10-21T00:01:15.764Z,4.83
2022-10-21T00:07:08.798Z,4.67
2022-10-21T00:13:03.554Z,4.80
2022-10-21T00:18:56.838Z,5.50
2022-10-21T00:24:50.171Z,4.97
2022-10-21T00:30:46.470Z,4.50
2022-10-21T00:36:39.758Z,5.40
2022-10-21T00:42:37.836Z,5.60
2022-10-21T00:48:37.100Z,5.77
2022-10-21T00:54:32.046Z,5.50
2022-10-21T01:00:25.356Z,5.60
2022-10-21T01:06:23.264Z,5.30
2022-10-21T01:12:26.950Z,5.47
2022-10-21T01:18:29.139Z,5.40
2022-10-21T01:24:52.871Z,5.20
2022-10-21T01:30:51.334Z,6.03
2022-10-21T01:36:51.909Z,6.17
2022-10-21T01:42:50.641Z,5.07
2022-10-21T01:48:49.595Z,6.07
2022-10-21T01:54:46.065Z,6.30
2022-10-21T02:00:40.470Z,6.03
2022-10-21T02:06:35.292Z,6.67
2022-10-21T02:12:31.111Z,6.50
2022-10-21T02:18:26.247Z,5.60
2022-10-21T02:24:27.850Z,6.40
2022-10-21T02:30:21.293Z,5.70
2022-10-21T02:36:18.190Z,5.97
2022-10-21T02:42:18.151Z,6.43
2022-10-21T02:48:11.440Z,5.80
2022-10-21T02:54:04.989Z,6.00
2022-10-21T02:59:59.257Z,5.50
2022-10-21T03:05:53.023Z,6.03
2022-10-21T03:11:46.319Z,6.47
2022-10-21T03:17:41.363Z,6.73
2022-10-21T03:23:35.483Z,6.27
2022-10-21T03:29:28.830Z,5.97
2022-10-21T03:35:23.502Z,6.60
2022-10-21T03:41:16.464Z,6.40
2022-10-21T03:47:10.005Z,6.17
2022-10-21T03:53:13.817Z,6.80
2022-10-21T03:59:17.932Z,5.80
2022-10-21T04:05:12.198Z,6.40
2022-10-21T04:11:06.650Z,5.90
2022-10-21T04:17:06.858Z,6.90
2022-10-21T04:23:00.678Z,7.03
2022-10-21T04:28:55.301Z,6.50
2022-10-21T04:34:48.611Z,6.27
2022-10-21T04:40:42.056Z,7.00
2022-10-21T04:46:36.330Z,6.70
2022-10-21T04:52:32.171Z,6.10
2022-10-21T04:58:25.903Z,6.20
2022-10-21T05:04:20.706Z,7.03
2022-10-21T05:10:14.085Z,6.30
2022-10-21T05:16:08.250Z,6.20
2022-10-21T05:22:02.917Z,6.30
2022-10-21T05:27:56.214Z,6.67
2022-10-21T05:33:49.498Z,7.20
2022-10-21T05:39:44.222Z,7.60
2022-10-21T05:45:37.536Z,7.60
2022-10-21T05:51:30.686Z,7.20
2022-10-21T05:57:25.383Z,7.60
2022-10-21T06:03:18.701Z,6.93
2022-10-21T06:09:12.142Z,8.07
2022-10-21T06:15:08.090Z,7.57
2022-10-21T06:21:01.491Z,7.20
2022-10-21T06:26:54.805Z,8.50
2022-10-21T06:32:49.457Z,8.10
2022-10-21T06:38:43.561Z,7.83
2022-10-21T06:44:36.905Z,7.80
2022-10-21T06:50:32.147Z,8.20
2022-10-21T06:56:26.377Z,7.53
2022-10-21T07:02:19.741Z,7.47
2022-10-21T07:08:14.448Z,11.83
2022-10-21T07:14:07.910Z,10.47
2022-10-21T07:20:01.246Z,8.60
2022-10-21T07:25:56.055Z,8.40
2022-10-21T07:31:49.471Z,8.57
2022-10-21T07:37:42.927Z,8.27
2022-10-21T07:43:37.657Z,9.50
2022-10-21T07:49:31.363Z,7.90
2022-10-21T07:55:24.693Z,9.80
2022-10-21T08:01:20.013Z,8.57
2022-10-21T08:07:14.058Z,9.13
2022-10-21T08:13:07.501Z,9.93
2022-10-21T08:19:02.502Z,8.70
2022-10-21T08:24:55.806Z,11.30
2022-10-21T08:30:49.209Z,9.10
2022-10-21T08:36:43.583Z,9.60
2022-10-21T08:42:42.881Z,9.03
2022-10-21T08:48:41.402Z,9.83
2022-10-21T08:54:48.996Z,9.97
2022-10-21T09:00:48.145Z,9.60
2022-10-21T09:06:49.028Z,9.63
2022-10-21T09:12:58.162Z,8.83
2022-10-21T09:19:02.615Z,9.73
2022-10-21T09:25:01.019Z,8.30
2022-10-21T09:30:56.458Z,8.10
2022-10-21T09:36:50.990Z,8.90
2022-10-21T09:42:48.284Z,7.83
2022-10-21T09:49:14.335Z,7.93
2022-10-21T09:55:00.746Z,8.43
2022-10-21T10:00:55.431Z,8.70
2022-10-21T10:06:50.591Z,8.37
2022-10-21T10:12:57.927Z,8.07
2022-10-21T10:18:52.585Z,8.10
2022-10-21T10:24:47.277Z,7.70
2022-10-21T10:30:50.140Z,8.17
2022-10-21T10:36:43.544Z,7.90
2022-10-21T10:42:44.028Z,8.40
2022-10-21T10:48:42.056Z,7.57
2022-10-21T10:54:35.874Z,8.40
2022-10-21T11:00:33.444Z,8.17
2022-10-21T11:06:36.772Z,8.53
2022-10-21T11:12:30.166Z,7.10
2022-10-21T11:18:35.206Z,8.17
2022-10-21T11:24:45.793Z,8.93
2022-10-21T11:30:50.165Z,9.57
2022-10-21T11:36:59.166Z,8.60
2022-10-21T11:42:54.103Z,9.10
2022-10-21T11:49:08.381Z,7.77
2022-10-21T11:55:17.447Z,8.37
2022-10-21T12:01:24.265Z,8.50
2022-10-21T12:07:36.454Z,8.63
2022-10-21T12:13:34.832Z,8.23
2022-10-21T12:19:28.673Z,7.87
2022-10-21T12:25:29.075Z,8.30
2022-10-21T12:31:36.300Z,8.00
2022-10-21T12:38:05.842Z,7.87
2022-10-21T12:44:16.168Z,8.40
2022-10-21T12:50:24.367Z,8.87
2022-10-21T12:56:30.753Z,7.77
2022-10-21T13:02:28.369Z,8.17
2022-10-21T13:08:28.698Z,8.47
2022-10-21T13:14:39.224Z,9.10
2022-10-21T13:20:49.489Z,8.77
2022-10-21T13:26:49.857Z,8.67
2022-10-21T13:32:43.246Z,8.13
2022-10-21T13:38:38.898Z,8.50
2022-10-21T13:44:37.307Z,7.80
2022-10-21T13:50:34.033Z,8.57
2022-10-21T13:56:29.574Z,7.90
2022-10-21T14:02:27.063Z,8.40
2022-10-21T14:08:26.931Z,7.47
2022-10-21T14:14:23.149Z,7.73
2022-10-21T14:20:23.800Z,8.60
2022-10-21T14:26:17.271Z,7.90
2022-10-21T14:32:15.489Z,7.90
2022-10-21T14:38:28.556Z,7.60
2022-10-21T14:44:25.551Z,6.50
2022-10-21T14:50:22.106Z,9.13
2022-10-21T14:56:20.954Z,7.93
2022-10-21T15:02:22.962Z,7.00
2022-10-21T15:08:29.611Z,7.20
2022-10-21T15:14:35.194Z,6.90
2022-10-21T15:20:31.293Z,7.13
2022-10-21T15:26:27.463Z,5.90
2022-10-21T15:32:26.954Z,6.70
2022-10-21T15:38:25.302Z,6.37
2022-10-21T15:44:22.164Z,5.23
2022-10-21T15:50:18.117Z,5.90
2022-10-21T15:56:13.266Z,6.30
2022-10-21T16:02:07.848Z,8.53
2022-10-21T16:08:04.360Z,8.20
2022-10-21T16:13:58.274Z,8.70
2022-10-21T16:19:51.567Z,7.70
2022-10-21T16:25:46.196Z,8.97
2022-10-21T16:31:39.540Z,8.83
2022-10-21T16:37:32.885Z,7.70
2022-10-21T16:43:27.508Z,8.33
2022-10-21T16:49:24.174Z,8.93
2022-10-21T16:55:18.062Z,10.40
2022-10-21T17:01:16.941Z,8.23
2022-10-21T17:07:10.249Z,9.00
2022-10-21T17:13:03.206Z,9.33
2022-10-21T17:18:57.889Z,10.33
2022-10-21T17:24:51.280Z,11.03
2022-10-21T17:30:44.814Z,10.43
2022-10-21T17:36:39.480Z,8.50
2022-10-21T17:42:32.862Z,7.00
2022-10-21T17:48:26.685Z,6.43
2022-10-21T17:54:24.661Z,6.30
2022-10-21T18:00:21.530Z,7.13
2022-10-21T18:06:15.244Z,6.70
2022-10-21T18:12:11.442Z,7.10
2022-10-21T18:18:04.798Z,6.50
2022-10-21T18:23:58.156Z,6.37
2022-10-21T18:29:52.889Z,6.40
2022-10-21T18:35:46.193Z,6.07
2022-10-21T18:41:39.803Z,5.93
2022-10-21T18:47:34.507Z,6.30
2022-10-21T18:53:27.920Z,5.80
2022-10-21T18:59:21.098Z,5.27
2022-10-21T19:05:15.805Z,5.87
2022-10-21T19:11:09.145Z,5.90
2022-10-21T19:17:02.615Z,5.47
2022-10-21T19:22:57.505Z,5.33
2022-10-21T19:28:51.253Z,5.20
2022-10-21T19:34:45.502Z,5.30
2022-10-21T19:40:40.269Z,5.47
2022-10-21T19:46:35.555Z,6.37
2022-10-21T19:52:29.050Z,7.90
2022-10-21T19:58:23.839Z,7.80
2022-10-21T20:04:16.768Z,7.70
2022-10-21T20:10:10.857Z,9.60
2022-10-21T20:16:06.432Z,8.80
2022-10-21T20:21:59.758Z,10.00
2022-10-21T20:27:53.093Z,10.53
2022-10-21T20:33:50.177Z,10.10
2022-10-21T20:39:43.605Z,11.20
2022-10-21T20:45:37.025Z,9.87
2022-10-21T20:51:31.869Z,11.10
2022-10-21T20:57:25.290Z,10.50
2022-10-21T21:03:18.461Z,11.20
2022-10-21T21:09:33.590Z,10.30
2022-10-21T21:15:27.689Z,9.00
2022-10-21T21:21:22.694Z,10.03
2022-10-21T21:27:17.036Z,9.43
2022-10-21T21:33:10.350Z,9.30
2022-10-21T21:39:04.002Z,10.10
2022-10-21T21:44:58.672Z,10.87
2022-10-21T21:50:52.261Z,10.10
2022-10-21T21:56:45.838Z,10.07
2022-10-21T22:02:41.326Z,9.60
2022-10-21T22:08:34.888Z,10.63
2022-10-21T22:14:28.277Z,10.30
2022-10-21T22:20:23.967Z,10.20
2022-10-21T22:26:18.652Z,10.67
2022-10-21T22:32:12.599Z,10.60
2022-10-21T22:38:07.540Z,11.53
2022-10-21T22:44:00.980Z,13.13
2022-10-21T22:49:54.684Z,12.57
2022-10-21T22:55:49.513Z,11.80
2022-10-21T23:01:42.898Z,11.20
2022-10-21T23:07:36.219Z,11.03
2022-10-21T23:13:30.881Z,11.73
2022-10-21T23:19:24.252Z,11.20
2022-10-21T23:25:19.024Z,11.20
2022-10-21T23:31:13.446Z,9.83
2022-10-21T23:37:06.787Z,11.53
2022-10-21T23:43:00.091Z,9.60
2022-10-21T23:48:54.880Z,9.87
2022-10-21T23:54:48.158Z,10.63
